createdAt,value
2023-02-24T00:00:32.617Z,10.12
2023-02-24T00:02:37.946Z,10.16
2023-02-24T00:04:45.570Z,10.20
2023-02-24T00:06:51.293Z,10.21
2023-02-24T00:08:56.377Z,10.20
2023-02-24T00:11:01.399Z,10.26
2023-02-24T00:13:06.195Z,10.23
2023-02-24T00:15:15.129Z,10.16
2023-02-24T00:17:20.006Z,10.19
2023-02-24T00:19:27.033Z,10.26
2023-02-24T00:21:34.478Z,10.25
2023-02-24T00:23:40.658Z,10.30
2023-02-24T00:25:45.433Z,10.29
2023-02-24T00:27:52.470Z,10.37
2023-02-24T00:30:01.819Z,10.36
2023-02-24T00:32:08.277Z,10.40
2023-02-24T00:34:15.736Z,10.39
2023-02-24T00:36:24.080Z,10.43
2023-02-24T00:38:35.941Z,10.40
2023-02-24T00:40:41.557Z,10.35
2023-02-24T00:42:46.306Z,10.41
2023-02-24T00:44:54.178Z,10.46
2023-02-24T00:46:59.108Z,10.47
2023-02-24T00:49:06.521Z,10.54
2023-02-24T00:51:13.055Z,10.53
2023-02-24T00:53:18.441Z,10.51
2023-02-24T00:55:27.930Z,10.47
2023-02-24T00:57:33.500Z,10.54
2023-02-24T00:59:39.221Z,10.58
2023-02-24T01:01:45.419Z,10.50
2023-02-24T01:03:51.767Z,10.35
2023-02-24T01:05:56.821Z,10.19
2023-02-24T01:08:02.854Z,10.19
2023-02-24T01:10:08.912Z,10.19
2023-02-24T01:12:30.351Z,10.21
2023-02-24T01:14:37.294Z,10.24
2023-02-24T01:16:44.798Z,10.29
2023-02-24T01:18:50.636Z,10.35
2023-02-24T01:20:55.494Z,10.42
2023-02-24T01:23:00.658Z,10.38
2023-02-24T01:25:08.074Z,10.31
2023-02-24T01:27:17.710Z,10.17
2023-02-24T01:29:23.166Z,10.14
2023-02-24T01:31:28.971Z,10.14
2023-02-24T01:33:37.329Z,10.06
2023-02-24T01:35:42.763Z,9.97
2023-02-24T01:37:48.105Z,9.97
2023-02-24T01:39:52.984Z,9.89
2023-02-24T01:42:01.756Z,9.84
2023-02-24T01:44:32.783Z,9.89
2023-02-24T01:46:39.836Z,9.91
2023-02-24T01:48:44.651Z,9.94
2023-02-24T01:50:50.751Z,9.85
2023-02-24T01:53:04.308Z,9.83
2023-02-24T01:55:16.588Z,9.79
2023-02-24T01:57:25.219Z,9.74
2023-02-24T01:59:33.587Z,9.83
2023-02-24T02:01:40.928Z,9.74
2023-02-24T02:03:48.754Z,9.75
2023-02-24T02:05:59.073Z,9.70
2023-02-24T02:08:04.801Z,9.77
2023-02-24T02:10:13.360Z,9.78
2023-02-24T02:12:18.984Z,9.75
2023-02-24T02:14:27.350Z,9.75
2023-02-24T02:16:58.442Z,9.72
2023-02-24T02:19:21.892Z,9.67
2023-02-24T02:21:48.902Z,9.64
2023-02-24T02:24:04.695Z,9.63
2023-02-24T02:26:22.874Z,9.58
2023-02-24T02:28:56.102Z,9.60
2023-02-24T02:31:46.741Z,9.68
2023-02-24T02:34:21.250Z,9.70
2023-02-24T02:36:33.485Z,9.62
2023-02-24T02:38:45.033Z,9.72
2023-02-24T02:40:57.869Z,9.65
2023-02-24T02:43:07.823Z,9.66
2023-02-24T02:45:18.241Z,9.71
2023-02-24T02:47:28.101Z,9.77
2023-02-24T02:49:41.854Z,9.80
2023-02-24T02:51:52.760Z,9.79
2023-02-24T02:54:05.016Z,9.88
2023-02-24T02:56:14.730Z,9.92
2023-02-24T02:58:26.303Z,10.00
2023-02-24T03:00:35.327Z,10.07
2023-02-24T03:02:42.767Z,10.06
2023-02-24T03:04:55.349Z,9.96
2023-02-24T03:07:04.926Z,9.96
2023-02-24T03:09:16.113Z,9.88
2023-02-24T03:11:24.705Z,9.82
2023-02-24T03:13:32.978Z,9.93
2023-02-24T03:15:42.334Z,9.95
2023-02-24T03:17:49.589Z,10.00
2023-02-24T03:20:15.140Z,9.97
2023-02-24T03:22:24.935Z,10.00
2023-02-24T03:24:30.684Z,10.09
2023-02-24T03:26:44.210Z,10.17
2023-02-24T03:28:59.375Z,10.16
2023-02-24T03:31:11.157Z,10.20
2023-02-24T03:33:24.408Z,10.22
2023-02-24T03:35:34.450Z,10.24
2023-02-24T03:37:41.256Z,10.25
2023-02-24T03:39:47.773Z,10.17
2023-02-24T03:42:04.405Z,10.08
2023-02-24T03:44:14.939Z,9.87
2023-02-24T03:46:20.365Z,9.90
2023-02-24T03:48:26.654Z,9.97
2023-02-24T03:50:35.855Z,9.96
2023-02-24T03:52:57.725Z,9.90
2023-02-24T03:55:19.669Z,9.92
2023-02-24T03:57:35.338Z,10.01
2023-02-24T03:59:52.983Z,9.92
2023-02-24T04:02:04.166Z,9.84
2023-02-24T04:04:24.537Z,9.78
2023-02-24T04:06:49.962Z,9.81
2023-02-24T04:09:13.321Z,9.82
2023-02-24T04:11:32.968Z,9.75
2023-02-24T04:13:43.953Z,9.75
2023-02-24T04:16:04.345Z,9.73
2023-02-24T04:18:17.654Z,9.61
2023-02-24T04:20:29.544Z,9.53
2023-02-24T04:22:41.058Z,9.52
2023-02-24T04:24:51.771Z,9.41
2023-02-24T04:27:37.079Z,9.36
2023-02-24T04:30:15.791Z,9.16
2023-02-24T04:32:24.840Z,9.11
2023-02-24T04:34:32.493Z,9.12
2023-02-24T04:36:38.627Z,9.12
2023-02-24T04:38:47.632Z,9.04
2023-02-24T04:40:52.734Z,8.95
2023-02-24T04:42:59.770Z,8.98
2023-02-24T04:45:10.133Z,8.90
2023-02-24T04:47:15.332Z,8.84
2023-02-24T04:49:22.379Z,8.83
2023-02-24T04:51:27.205Z,8.87
2023-02-24T04:53:32.200Z,8.91
2023-02-24T04:55:42.434Z,8.94
2023-02-24T04:57:48.016Z,8.95
2023-02-24T04:59:54.196Z,8.92
2023-02-24T05:02:01.677Z,9.01
2023-02-24T05:04:06.764Z,9.14
2023-02-24T05:06:17.370Z,9.25
2023-02-24T05:08:23.091Z,9.33
2023-02-24T05:10:28.511Z,9.35
2023-02-24T05:12:40.087Z,9.41
2023-02-24T05:14:44.881Z,9.36
2023-02-24T05:16:51.604Z,9.34
2023-02-24T05:19:08.655Z,9.33
2023-02-24T05:21:28.779Z,9.34
2023-02-24T05:23:36.212Z,9.26
2023-02-24T05:25:43.232Z,9.17
2023-02-24T05:27:50.705Z,9.23
2023-02-24T05:29:55.913Z,9.11
2023-02-24T05:32:02.695Z,9.10
2023-02-24T05:34:09.902Z,9.09
2023-02-24T05:36:18.030Z,8.98
2023-02-24T05:38:22.928Z,8.97
2023-02-24T05:40:28.413Z,9.01
2023-02-24T05:42:35.083Z,8.94
2023-02-24T05:44:42.564Z,8.95
2023-02-24T05:46:49.869Z,8.91
2023-02-24T05:48:57.048Z,8.98
2023-02-24T05:51:03.169Z,9.00
2023-02-24T05:53:09.592Z,8.95
2023-02-24T05:55:14.547Z,8.96
2023-02-24T05:57:27.534Z,9.01
2023-02-24T05:59:33.675Z,8.97
2023-02-24T06:01:45.808Z,8.96
2023-02-24T06:03:50.749Z,8.94
2023-02-24T06:05:59.335Z,8.97
2023-02-24T06:08:11.837Z,9.02
2023-02-24T06:10:17.320Z,9.03
2023-02-24T06:12:23.755Z,9.05
2023-02-24T06:14:28.940Z,9.10
2023-02-24T06:16:34.414Z,9.06
2023-02-24T06:18:41.927Z,9.11
2023-02-24T06:20:51.364Z,9.12
2023-02-24T06:22:58.353Z,9.09
2023-02-24T06:25:05.396Z,9.03
2023-02-24T06:27:17.891Z,8.90
2023-02-24T06:29:25.084Z,8.88
2023-02-24T06:31:30.675Z,8.81
2023-02-24T06:33:36.351Z,8.81
2023-02-24T06:35:43.826Z,8.83
2023-02-24T06:37:50.567Z,8.94
2023-02-24T06:39:55.536Z,8.96
2023-02-24T06:42:03.960Z,8.92
2023-02-24T06:44:09.599Z,8.93
2023-02-24T06:46:16.113Z,8.98
2023-02-24T06:48:23.080Z,9.03
2023-02-24T06:50:28.994Z,9.14
2023-02-24T06:52:36.570Z,9.26
2023-02-24T06:54:42.052Z,9.38
2023-02-24T06:56:47.926Z,9.41
2023-02-24T06:58:57.357Z,9.46
2023-02-24T07:01:04.713Z,9.40
2023-02-24T07:03:17.541Z,9.41
2023-02-24T07:05:24.305Z,9.42
2023-02-24T07:07:29.394Z,9.40
2023-02-24T07:09:36.889Z,9.46
2023-02-24T07:11:46.905Z,9.51
2023-02-24T07:13:55.034Z,9.58
2023-02-24T07:16:07.098Z,9.53
2023-02-24T07:18:14.957Z,9.51
2023-02-24T07:20:25.672Z,9.37
2023-02-24T07:22:31.740Z,9.36
2023-02-24T07:24:46.367Z,9.44
2023-02-24T07:26:56.351Z,9.51
2023-02-24T07:29:04.603Z,9.48
2023-02-24T07:31:12.011Z,9.44
2023-02-24T07:33:18.205Z,9.40
2023-02-24T07:35:24.047Z,9.45
2023-02-24T07:37:31.879Z,9.45
2023-02-24T07:39:43.091Z,9.49
2023-02-24T07:41:49.669Z,9.57
2023-02-24T07:43:56.335Z,9.55
2023-02-24T07:46:01.587Z,9.62
2023-02-24T07:48:06.672Z,9.72
2023-02-24T07:50:14.708Z,9.58
2023-02-24T07:52:19.509Z,9.61
2023-02-24T07:54:25.460Z,9.64
2023-02-24T07:56:34.128Z,9.76
2023-02-24T07:58:39.338Z,9.76
2023-02-24T08:00:59.572Z,9.77
2023-02-24T08:03:04.440Z,9.66
2023-02-24T08:05:09.613Z,9.60
2023-02-24T08:07:15.439Z,9.64
2023-02-24T08:09:42.526Z,9.60
2023-02-24T08:11:55.487Z,9.47
2023-02-24T08:14:02.750Z,9.46
2023-02-24T08:16:09.111Z,9.44
2023-02-24T08:18:15.225Z,9.38
2023-02-24T08:20:29.804Z,9.35
2023-02-24T08:22:37.446Z,9.31
2023-02-24T08:24:43.683Z,9.25
2023-02-24T08:27:04.402Z,9.28
2023-02-24T08:29:09.657Z,9.35
2023-02-24T08:31:14.918Z,9.20
2023-02-24T08:33:23.918Z,9.23
2023-02-24T08:35:35.334Z,9.29
2023-02-24T08:37:47.164Z,9.30
2023-02-24T08:39:56.999Z,9.37
2023-02-24T08:42:04.959Z,9.41
2023-02-24T08:44:10.367Z,9.47
2023-02-24T08:46:27.926Z,9.49
2023-02-24T08:48:38.015Z,9.48
2023-02-24T08:50:45.706Z,9.45
2023-02-24T08:52:50.972Z,9.39
2023-02-24T08:54:59.298Z,9.47
2023-02-24T08:57:15.267Z,9.58
2023-02-24T08:59:46.058Z,9.59
2023-02-24T09:02:04.364Z,9.61
2023-02-24T09:04:12.470Z,9.48
2023-02-24T09:06:25.494Z,9.43
2023-02-24T09:08:32.813Z,9.42
2023-02-24T09:10:39.803Z,9.56
2023-02-24T09:12:49.350Z,9.57
2023-02-24T09:14:57.674Z,9.63
2023-02-24T09:17:06.557Z,9.70
2023-02-24T09:19:40.585Z,9.67
2023-02-24T09:22:01.015Z,9.63
2023-02-24T09:24:07.811Z,9.59
2023-02-24T09:26:14.134Z,9.45
2023-02-24T09:28:25.187Z,9.55
2023-02-24T09:30:51.478Z,9.64
2023-02-24T09:33:01.533Z,9.72
2023-02-24T09:35:06.573Z,9.86
2023-02-24T09:37:25.004Z,10.03
2023-02-24T09:39:29.864Z,10.11
2023-02-24T09:41:55.522Z,10.20
2023-02-24T09:44:07.825Z,10.23
2023-02-24T09:46:17.119Z,10.09
2023-02-24T09:48:32.140Z,10.21
2023-02-24T09:51:03.299Z,10.25
2023-02-24T09:53:17.745Z,10.18
2023-02-24T09:55:30.868Z,10.26
2023-02-24T09:58:03.520Z,10.33
2023-02-24T10:00:33.763Z,10.19
2023-02-24T10:02:47.446Z,10.34
2023-02-24T10:05:07.666Z,10.27
2023-02-24T10:07:18.452Z,10.24
2023-02-24T10:09:33.639Z,10.18
2023-02-24T10:11:38.545Z,10.20
2023-02-24T10:13:50.630Z,10.16
2023-02-24T10:16:07.341Z,10.18
2023-02-24T10:18:29.933Z,10.12
2023-02-24T10:20:45.789Z,10.22
2023-02-24T10:22:57.943Z,10.37
2023-02-24T10:25:14.092Z,10.47
2023-02-24T10:27:24.678Z,10.50
2023-02-24T10:29:39.940Z,10.58
2023-02-24T10:31:57.784Z,10.56
2023-02-24T10:34:07.326Z,10.41
2023-02-24T10:36:17.334Z,10.47
2023-02-24T10:38:22.668Z,10.36
2023-02-24T10:40:47.277Z,10.35
2023-02-24T10:42:55.107Z,10.28
2023-02-24T10:45:17.146Z,10.29
2023-02-24T10:47:31.235Z,10.43
2023-02-24T10:49:44.943Z,10.38
2023-02-24T10:51:55.731Z,10.30
2023-02-24T10:54:22.969Z,10.28
2023-02-24T10:56:41.987Z,10.22
2023-02-24T10:59:18.115Z,10.40
2023-02-24T11:01:40.841Z,10.38
2023-02-24T11:04:22.671Z,10.38
2023-02-24T11:06:41.500Z,10.43
2023-02-24T11:08:54.818Z,10.47
2023-02-24T11:11:07.356Z,10.50
2023-02-24T11:13:37.134Z,10.51
2023-02-24T11:15:59.355Z,10.55
2023-02-24T11:18:07.009Z,10.70
2023-02-24T11:20:22.864Z,10.81
2023-02-24T11:22:33.692Z,11.00
2023-02-24T11:24:41.240Z,11.20
2023-02-24T11:26:46.393Z,11.23
2023-02-24T11:29:06.808Z,10.93
2023-02-24T11:31:25.910Z,10.57
2023-02-24T11:33:42.612Z,10.49
2023-02-24T11:35:59.961Z,10.54
2023-02-24T11:38:12.315Z,10.65
2023-02-24T11:40:23.904Z,10.61
2023-02-24T11:42:33.294Z,10.66
2023-02-24T11:44:48.835Z,10.64
2023-02-24T11:46:58.011Z,10.40
2023-02-24T11:49:06.452Z,10.39
2023-02-24T11:51:23.588Z,10.38
2023-02-24T11:53:32.839Z,10.45
2023-02-24T11:55:43.152Z,10.58
2023-02-24T11:57:53.797Z,10.63
2023-02-24T12:00:13.383Z,10.69
2023-02-24T12:02:25.943Z,10.76
2023-02-24T12:04:35.228Z,10.80
2023-02-24T12:06:51.144Z,10.81
2023-02-24T12:08:59.910Z,10.79
2023-02-24T12:11:09.916Z,10.63
2023-02-24T12:13:22.466Z,10.68
2023-02-24T12:15:30.952Z,10.71
2023-02-24T12:17:41.836Z,10.83
2023-02-24T12:19:57.634Z,10.88
2023-02-24T12:22:10.009Z,10.65
2023-02-24T12:24:17.084Z,10.72
2023-02-24T12:26:25.527Z,10.68
2023-02-24T12:28:46.688Z,10.78
2023-02-24T12:31:03.547Z,11.08
2023-02-24T12:33:20.730Z,11.14
2023-02-24T12:35:35.317Z,11.15
2023-02-24T12:38:06.480Z,11.13
2023-02-24T12:40:26.442Z,11.23
2023-02-24T12:42:38.296Z,11.27
2023-02-24T12:44:52.495Z,11.15
2023-02-24T12:47:08.387Z,11.04
2023-02-24T12:49:45.512Z,10.85
2023-02-24T12:52:04.718Z,10.81
2023-02-24T12:54:20.081Z,10.90
2023-02-24T12:56:28.099Z,10.85
2023-02-24T12:58:36.823Z,10.86
2023-02-24T13:00:58.324Z,10.95
2023-02-24T13:03:11.875Z,10.83
2023-02-24T13:05:25.552Z,10.85
2023-02-24T13:07:45.967Z,10.80
2023-02-24T13:10:06.781Z,10.66
2023-02-24T13:12:18.613Z,10.74
2023-02-24T13:14:29.082Z,10.70
2023-02-24T13:16:36.009Z,10.61
2023-02-24T13:18:41.712Z,10.52
2023-02-24T13:20:46.552Z,10.58
2023-02-24T13:22:51.423Z,10.58
2023-02-24T13:25:22.222Z,10.65
2023-02-24T13:27:29.297Z,10.71
2023-02-24T13:29:34.103Z,10.63
2023-02-24T13:31:47.252Z,10.61
2023-02-24T13:33:52.910Z,10.42
2023-02-24T13:36:10.608Z,10.44
2023-02-24T13:38:38.970Z,10.39
2023-02-24T13:40:46.709Z,10.32
2023-02-24T13:43:02.065Z,10.40
2023-02-24T13:45:20.289Z,10.41
2023-02-24T13:47:52.402Z,10.56
2023-02-24T13:50:16.104Z,10.71
2023-02-24T13:52:34.577Z,10.73
2023-02-24T13:55:14.126Z,10.88
2023-02-24T13:57:49.406Z,10.82
2023-02-24T14:00:11.574Z,10.69
2023-02-24T14:02:21.241Z,10.64
2023-02-24T14:04:29.729Z,10.77
2023-02-24T14:06:34.872Z,10.85
2023-02-24T14:08:45.312Z,10.84
2023-02-24T14:10:55.615Z,10.76
2023-02-24T14:13:14.762Z,10.69
2023-02-24T14:15:24.765Z,10.70
2023-02-24T14:17:31.523Z,10.52
2023-02-24T14:19:36.423Z,10.47
2023-02-24T14:21:41.227Z,10.45
2023-02-24T14:23:46.036Z,10.51
2023-02-24T14:25:55.140Z,10.50
2023-02-24T14:28:00.529Z,10.46
2023-02-24T14:30:09.460Z,10.28
2023-02-24T14:32:22.864Z,10.21
2023-02-24T14:34:31.991Z,10.19
2023-02-24T14:36:41.771Z,10.29
2023-02-24T14:38:47.497Z,10.32
2023-02-24T14:40:52.375Z,10.35
2023-02-24T14:43:00.779Z,10.34
2023-02-24T14:45:20.915Z,10.31
2023-02-24T14:47:27.481Z,10.37
2023-02-24T14:49:33.552Z,10.36
2023-02-24T14:51:39.738Z,10.35
2023-02-24T14:53:51.447Z,10.46
2023-02-24T14:55:59.154Z,10.49
2023-02-24T14:58:09.165Z,10.58
2023-02-24T15:00:24.398Z,10.71
2023-02-24T15:02:34.935Z,10.64
2023-02-24T15:04:44.485Z,10.68
2023-02-24T15:06:49.490Z,10.72
2023-02-24T15:08:58.800Z,10.61
2023-02-24T15:11:08.982Z,10.57
2023-02-24T15:13:19.857Z,10.63
2023-02-24T15:15:29.789Z,10.67
2023-02-24T15:17:35.387Z,10.67
2023-02-24T15:19:44.369Z,10.51
2023-02-24T15:21:49.217Z,10.46
2023-02-24T15:24:02.535Z,10.43
2023-02-24T15:26:09.375Z,10.36
2023-02-24T15:28:27.438Z,10.36
2023-02-24T15:30:37.437Z,10.27
2023-02-24T15:32:42.623Z,10.26
2023-02-24T15:34:48.401Z,10.22
2023-02-24T15:36:58.040Z,10.16
2023-02-24T15:39:05.485Z,10.08
2023-02-24T15:41:12.028Z,10.01
2023-02-24T15:43:33.415Z,10.04
2023-02-24T15:45:42.500Z,10.03
2023-02-24T15:47:48.430Z,9.99
2023-02-24T15:49:55.779Z,9.98
2023-02-24T15:52:04.054Z,9.90
2023-02-24T15:54:11.504Z,9.89
2023-02-24T15:56:17.378Z,9.91
2023-02-24T15:58:25.678Z,10.00
2023-02-24T16:00:32.110Z,10.03
2023-02-24T16:02:39.753Z,10.07
2023-02-24T16:04:44.609Z,10.19
2023-02-24T16:06:54.900Z,10.09
2023-02-24T16:09:00.957Z,9.98
2023-02-24T16:11:05.796Z,9.97
2023-02-24T16:13:20.297Z,9.84
2023-02-24T16:15:29.170Z,9.83
2023-02-24T16:17:36.580Z,9.77
2023-02-24T16:19:44.335Z,9.80
2023-02-24T16:21:49.230Z,9.84
2023-02-24T16:23:54.068Z,9.86
2023-02-24T16:26:01.453Z,9.89
2023-02-24T16:28:06.287Z,9.75
2023-02-24T16:30:22.351Z,9.63
2023-02-24T16:32:29.771Z,9.69
2023-02-24T16:34:34.816Z,9.77
2023-02-24T16:36:42.180Z,9.81
2023-02-24T16:38:50.893Z,9.84
2023-02-24T16:40:56.951Z,9.85
2023-02-24T16:43:01.898Z,9.94
2023-02-24T16:45:07.322Z,9.84
2023-02-24T16:47:17.769Z,9.88
2023-02-24T16:49:26.306Z,9.88
2023-02-24T16:51:31.632Z,9.77
2023-02-24T16:53:39.037Z,9.64
2023-02-24T16:55:44.150Z,9.58
2023-02-24T16:57:48.996Z,9.61
2023-02-24T16:59:53.801Z,9.65
2023-02-24T17:01:59.637Z,9.70
2023-02-24T17:04:07.621Z,9.70
2023-02-24T17:06:12.722Z,9.70
2023-02-24T17:08:18.045Z,9.74
2023-02-24T17:10:25.582Z,9.68
2023-02-24T17:12:30.444Z,9.52
2023-02-24T17:14:35.250Z,9.46
2023-02-24T17:16:41.989Z,9.47
2023-02-24T17:18:46.944Z,9.35
2023-02-24T17:20:51.937Z,9.39
2023-02-24T17:22:56.782Z,9.37
2023-02-24T17:25:01.929Z,9.32
2023-02-24T17:27:09.563Z,9.28
2023-02-24T17:29:16.600Z,9.30
2023-02-24T17:31:21.529Z,9.20
2023-02-24T17:33:26.452Z,9.19
2023-02-24T17:35:31.871Z,9.17
2023-02-24T17:37:36.642Z,9.16
2023-02-24T17:39:41.461Z,9.01
2023-02-24T17:41:46.234Z,9.04
2023-02-24T17:43:55.734Z,8.99
2023-02-24T17:46:00.556Z,8.92
2023-02-24T17:48:05.354Z,8.94
2023-02-24T17:50:13.119Z,8.92
2023-02-24T17:52:18.170Z,8.96
2023-02-24T17:54:30.518Z,8.94
2023-02-24T17:56:35.338Z,8.97
2023-02-24T17:58:40.406Z,8.98
2023-02-24T18:00:47.740Z,9.02
2023-02-24T18:02:52.587Z,9.05
2023-02-24T18:04:57.421Z,8.98
2023-02-24T18:07:02.311Z,8.99
2023-02-24T18:09:07.106Z,8.98
2023-02-24T18:11:16.975Z,8.88
2023-02-24T18:13:21.787Z,9.02
2023-02-24T18:15:26.607Z,9.01
2023-02-24T18:17:35.806Z,9.00
2023-02-24T18:19:40.822Z,8.96
2023-02-24T18:21:45.666Z,8.96
2023-02-24T18:23:50.706Z,8.87
2023-02-24T18:25:55.509Z,8.83
2023-02-24T18:28:00.378Z,8.79
2023-02-24T18:30:06.896Z,8.79
2023-02-24T18:32:11.885Z,8.83
2023-02-24T18:34:19.420Z,8.81
2023-02-24T18:36:24.285Z,8.80
2023-02-24T18:38:29.471Z,8.75
2023-02-24T18:40:34.336Z,8.74
2023-02-24T18:42:39.202Z,8.66
2023-02-24T18:44:43.950Z,8.69
2023-02-24T18:46:48.911Z,8.74
2023-02-24T18:48:54.863Z,8.71
2023-02-24T18:51:03.755Z,8.58
2023-02-24T18:53:09.053Z,8.58
2023-02-24T18:55:14.028Z,8.54
2023-02-24T18:57:18.872Z,8.49
2023-02-24T18:59:23.774Z,8.41
2023-02-24T19:01:30.719Z,8.39
2023-02-24T19:03:35.978Z,8.35
2023-02-24T19:05:41.267Z,8.36
2023-02-24T19:07:48.697Z,8.34
2023-02-24T19:09:54.051Z,8.44
2023-02-24T19:11:58.945Z,8.58
2023-02-24T19:14:04.010Z,8.64
2023-02-24T19:16:09.377Z,8.44
2023-02-24T19:18:14.956Z,8.30
2023-02-24T19:20:20.112Z,8.31
2023-02-24T19:22:24.712Z,8.22
2023-02-24T19:24:32.224Z,8.20
2023-02-24T19:26:37.548Z,8.22
2023-02-24T19:28:42.094Z,8.00
2023-02-24T19:30:47.114Z,7.98
2023-02-24T19:32:52.384Z,8.05
2023-02-24T19:34:57.829Z,8.12
2023-02-24T19:37:02.568Z,8.03
2023-02-24T19:39:08.897Z,8.01
2023-02-24T19:41:16.391Z,8.00
2023-02-24T19:43:21.236Z,7.85
2023-02-24T19:45:26.290Z,7.72
2023-02-24T19:47:31.142Z,7.60
2023-02-24T19:49:36.014Z,7.60
2023-02-24T19:51:40.869Z,7.29
2023-02-24T19:53:46.234Z,7.02
2023-02-24T19:55:52.997Z,6.59
2023-02-24T19:58:00.494Z,6.48
2023-02-24T20:00:05.662Z,6.35
2023-02-24T20:02:16.864Z,6.13
2023-02-24T20:04:21.893Z,6.02
2023-02-24T20:06:31.316Z,5.81
2023-02-24T20:08:38.045Z,5.66
2023-02-24T20:10:42.893Z,5.66
2023-02-24T20:12:47.953Z,5.62
2023-02-24T20:14:55.558Z,5.50
2023-02-24T20:17:00.482Z,5.38
2023-02-24T20:19:06.071Z,5.50
2023-02-24T20:21:12.290Z,5.41
2023-02-24T20:23:17.161Z,4.89
2023-02-24T20:25:21.986Z,4.63
2023-02-24T20:27:26.789Z,4.46
2023-02-24T20:29:33.035Z,4.31
2023-02-24T20:31:41.030Z,4.21
2023-02-24T20:33:46.612Z,4.16
2023-02-24T20:35:51.450Z,4.10
2023-02-24T20:37:56.216Z,3.92
2023-02-24T20:40:01.019Z,3.73
2023-02-24T20:42:06.224Z,3.79
2023-02-24T20:44:11.326Z,3.66
2023-02-24T20:46:17.159Z,3.59
2023-02-24T20:48:25.094Z,3.63
2023-02-24T20:50:30.485Z,3.81
2023-02-24T20:52:37.680Z,3.96
2023-02-24T20:54:43.444Z,4.01
2023-02-24T20:56:49.276Z,3.91
2023-02-24T20:58:56.119Z,3.95
2023-02-24T21:01:01.140Z,3.95
2023-02-24T21:03:07.843Z,3.96
2023-02-24T21:05:21.351Z,3.88
2023-02-24T21:07:26.316Z,3.79
2023-02-24T21:09:37.221Z,3.87
2023-02-24T21:11:42.237Z,3.72
2023-02-24T21:13:49.353Z,3.75
2023-02-24T21:15:54.796Z,3.80
2023-02-24T21:17:59.602Z,3.81
2023-02-24T21:20:04.501Z,3.87
2023-02-24T21:22:11.985Z,3.90
2023-02-24T21:24:16.816Z,3.90
2023-02-24T21:26:26.027Z,3.90
2023-02-24T21:28:31.265Z,3.85
2023-02-24T21:30:35.873Z,3.75
2023-02-24T21:32:40.911Z,3.72
2023-02-24T21:34:45.862Z,3.65
2023-02-24T21:36:50.857Z,3.66
2023-02-24T21:38:58.469Z,3.65
2023-02-24T21:41:03.692Z,3.72
2023-02-24T21:43:09.753Z,3.66
2023-02-24T21:45:14.775Z,3.71
2023-02-24T21:47:20.572Z,3.74
2023-02-24T21:49:26.601Z,3.72
2023-02-24T21:51:31.917Z,3.74
2023-02-24T21:53:43.576Z,3.82
2023-02-24T21:55:50.996Z,3.80
2023-02-24T21:57:56.029Z,3.81
2023-02-24T22:00:02.163Z,3.82
2023-02-24T22:02:16.264Z,3.79
2023-02-24T22:04:21.807Z,3.79
2023-02-24T22:06:31.302Z,3.82
2023-02-24T22:08:37.426Z,3.88
2023-02-24T22:10:42.795Z,3.95
2023-02-24T22:12:50.719Z,3.84
2023-02-24T22:14:55.479Z,3.69
2023-02-24T22:17:00.465Z,3.68
2023-02-24T22:19:06.352Z,3.71
2023-02-24T22:21:12.565Z,3.80
2023-02-24T22:23:17.364Z,3.75
2023-02-24T22:25:22.222Z,3.68
2023-02-24T22:27:27.045Z,3.62
2023-02-24T22:29:34.537Z,3.58
2023-02-24T22:31:43.766Z,3.57
2023-02-24T22:33:49.736Z,3.61
2023-02-24T22:35:57.023Z,3.52
2023-02-24T22:38:01.911Z,3.48
2023-02-24T22:40:07.590Z,3.43
2023-02-24T22:42:12.507Z,3.45
2023-02-24T22:44:19.356Z,3.40
2023-02-24T22:46:29.562Z,3.54
2023-02-24T22:48:35.900Z,3.49
2023-02-24T22:50:40.724Z,3.53
2023-02-24T22:52:45.592Z,3.65
2023-02-24T22:54:50.653Z,3.69
2023-02-24T22:57:00.257Z,3.73
2023-02-24T22:59:05.103Z,3.70
2023-02-24T23:01:12.399Z,3.69
2023-02-24T23:03:21.395Z,3.77
2023-02-24T23:05:26.225Z,3.85
2023-02-24T23:07:31.069Z,3.87
2023-02-24T23:09:35.844Z,3.93
2023-02-24T23:11:43.040Z,3.93
2023-02-24T23:13:49.255Z,3.92
2023-02-24T23:15:54.049Z,3.91
2023-02-24T23:17:58.859Z,3.94
2023-02-24T23:20:12.854Z,4.08
2023-02-24T23:22:19.133Z,4.11
2023-02-24T23:24:24.762Z,4.17
2023-02-24T23:26:32.127Z,4.19
2023-02-24T23:28:37.886Z,4.25
2023-02-24T23:30:44.113Z,4.25
2023-02-24T23:32:48.995Z,4.30
2023-02-24T23:34:56.925Z,4.25
2023-02-24T23:37:04.319Z,4.18
2023-02-24T23:39:10.793Z,4.24
2023-02-24T23:41:16.762Z,4.21
2023-02-24T23:43:21.663Z,4.26
2023-02-24T23:45:26.515Z,4.26
2023-02-24T23:47:31.387Z,4.27
2023-02-24T23:49:47.541Z,4.29
2023-02-24T23:51:54.230Z,4.29
2023-02-24T23:54:01.786Z,4.34
2023-02-24T23:56:10.940Z,4.39
2023-02-24T23:58:16.794Z,4.36
